Time;durP1;ratioP1;P1;durP2;ratioP2;P2;SDS_P1;SDS_P2;PMS_P1;PMS_P2;Temp;Humidity;BMP_temperature;BMP_pressure;BME280_temperature;BME280_humidity;BME280_pressure;Samples;Min_cycle;Max_cycle;Signal;HPM_P1;HPM_P2
2022/12/28 00:01:18;;;;;;;7.15;2.00;;;8.30;75.80;;;7.29;60.30;100751.19;4999475;28;20061;-75
2022/12/28 00:03:46;;;;;;;10.73;2.42;;;8.30;76.10;;;7.27;60.42;100753.19;5002689;28;20121;-74
2022/12/28 00:06:14;;;;;;;6.43;1.92;;;8.30;76.20;;;7.27;60.01;100738.13;5006195;28;20080;-74
2022/12/28 00:08:42;;;;;;;7.72;1.85;;;8.30;75.80;;;7.29;59.78;100738.75;5004211;28;20096;-74
2022/12/28 00:11:16;;;;;;;6.82;2.05;;;8.30;76.00;;;7.35;60.32;100723.91;5003913;28;20580;-74
2022/12/28 00:13:44;;;;;;;8.80;2.58;;;8.30;76.40;;;7.36;60.26;100725.56;5002425;28;20045;-74
2022/12/28 00:16:20;;;;;;;6.00;2.08;;;8.40;76.10;;;7.32;60.03;100724.28;4990607;28;20045;-74
2022/12/28 00:18:47;;;;;;;10.27;1.95;;;8.30;76.00;;;7.35;60.42;100726.56;4998937;28;20046;-75
2022/12/28 00:21:14;;;;;;;6.72;1.80;;;8.40;76.20;;;7.34;60.02;100727.59;5003123;28;20106;-74
2022/12/28 00:23:42;;;;;;;8.70;2.40;;;8.40;75.90;;;7.32;60.10;100732.22;5004480;28;20045;-75
2022/12/28 00:26:13;;;;;;;6.93;2.08;;;8.40;76.20;;;7.27;60.24;100721.34;4982583;28;20042;-74
2022/12/28 00:28:40;;;;;;;8.88;2.08;;;8.40;76.00;;;7.27;60.26;100721.34;5002791;28;20038;-74
2022/12/28 00:31:07;;;;;;;10.23;1.98;;;8.40;76.20;;;7.30;60.80;100729.78;4984412;28;20061;-75
2022/12/28 00:33:35;;;;;;;9.35;2.28;;;8.40;76.40;;;7.28;60.91;100736.28;5001835;28;20038;-74
2022/12/28 00:36:02;;;;;;;8.20;2.17;;;8.30;76.80;;;7.29;61.14;100733.44;5000678;28;20041;-74
2022/12/28 00:38:31;;;;;;;7.43;1.80;;;8.30;77.00;;;7.34;61.46;100727.59;4991861;28;20062;-74
2022/12/28 00:41:00;;;;;;;10.45;2.15;;;8.30;77.50;;;7.35;61.89;100715.97;4999443;28;20050;-74
2022/12/28 00:43:28;;;;;;;8.55;2.28;;;8.40;77.80;;;7.36;62.31;100728.22;4984219;28;20052;-74
2022/12/28 00:45:55;;;;;;;8.85;2.60;;;8.40;78.30;;;7.37;62.92;100709.47;4978933;28;20053;-74
2022/12/28 00:48:22;;;;;;;8.80;2.15;;;8.40;78.90;;;7.42;62.86;100708.94;4982485;28;20614;-75
2022/12/28 00:50:50;;;;;;;7.13;2.40;;;8.40;79.20;;;7.39;62.98;100680.91;4965782;28;20050;-75
2022/12/28 00:53:18;;;;;;;8.15;2.33;;;8.40;79.10;;;7.42;63.26;100674.44;4968679;28;20694;-75
2022/12/28 00:55:45;;;;;;;6.72;1.88;;;8.40;79.70;;;7.42;63.69;100664.63;4984301;28;20044;-74
2022/12/28 00:58:14;;;;;;;7.97;2.15;;;8.40;80.10;;;7.37;63.16;100674.13;5003396;28;20132;-74
2022/12/28 01:00:41;;;;;;;6.82;2.15;;;8.40;79.60;;;7.41;63.76;100675.41;4997878;28;20105;-74
2022/12/28 01:03:08;;;;;;;10.48;2.22;;;8.40;80.20;;;7.45;63.56;100671.38;5001765;28;20045;-74
2022/12/28 01:05:38;;;;;;;6.65;2.17;;;8.40;80.40;;;7.47;63.51;100650.81;4985769;28;20051;-75
2022/12/28 01:08:08;;;;;;;7.25;2.13;;;8.40;80.50;;;7.46;63.87;100647.31;4999878;28;20046;-74
2022/12/28 01:10:38;;;;;;;6.57;1.67;;;8.40;80.40;;;7.46;63.80;100643.84;4995883;28;20428;-74
2022/12/28 01:13:05;;;;;;;6.38;2.17;;;8.40;80.30;;;7.40;64.29;100628.69;4999034;28;20042;-74
2022/12/28 01:15:34;;;;;;;8.45;2.10;;;8.40;80.70;;;7.39;64.14;100629.69;4979001;28;20437;-74
2022/12/28 01:18:01;;;;;;;8.15;2.42;;;8.40;80.80;;;7.44;64.42;100625.47;4989613;28;20054;-74
2022/12/28 01:20:28;;;;;;;7.28;1.83;;;8.50;81.20;;;7.45;64.50;100628.94;4985210;28;20054;-74
2022/12/28 01:22:56;;;;;;;9.40;2.90;;;8.40;81.20;;;7.49;64.50;100624.91;5003833;28;20049;-74
2022/12/28 01:25:23;;;;;;;7.20;2.30;;;8.50;81.40;;;7.43;64.63;100631.78;4985987;28;20052;-74
2022/12/28 01:27:50;;;;;;;6.88;2.30;;;8.50;81.40;;;7.48;64.86;100626.75;4987354;28;20144;-74
2022/12/28 01:30:19;;;;;;;10.68;2.42;;;8.50;81.70;;;7.49;64.77;100620.41;4998341;28;20459;-74
2022/12/28 01:32:47;;;;;;;10.90;2.70;;;8.50;81.90;;;7.51;65.27;100622.06;5005065;28;20069;-75
2022/12/28 01:35:14;;;;;;;9.63;2.38;;;8.40;82.00;;;7.53;65.30;100620.88;5002166;28;20050;-74
2022/12/28 01:37:41;;;;;;;7.22;2.42;;;8.40;82.20;;;7.47;65.48;100613.66;4987162;28;20053;-75
2022/12/28 01:40:13;;;;;;;7.03;2.58;;;8.50;82.60;;;7.46;65.54;100604.03;4998277;28;20046;-74
2022/12/28 01:42:40;;;;;;;7.25;2.85;;;8.50;82.50;;;7.48;65.64;100600.19;5001817;28;20117;-74
2022/12/28 01:45:18;;;;;;;6.35;2.30;;;8.50;82.50;;;7.48;65.72;100591.41;5001437;28;20121;-74
2022/12/28 01:47:49;;;;;;;8.27;2.70;;;8.50;82.60;;;7.46;65.63;100583.63;4997303;28;20050;-74
2022/12/28 01:50:21;;;;;;;7.40;2.28;;;8.50;82.80;;;7.41;65.61;100582.56;5002859;28;20125;-75
2022/12/28 01:52:53;;;;;;;10.20;2.90;;;8.40;82.70;;;7.41;65.83;100577.25;5001711;28;20573;-74
2022/12/28 01:55:24;;;;;;;9.07;2.35;;;8.40;82.80;;;7.34;66.34;100581.66;5001262;28;20072;-74
2022/12/28 01:57:59;;;;;;;9.60;2.53;;;8.40;82.90;;;7.40;66.08;100578.25;4987164;28;20161;-75
2022/12/28 02:00:27;;;;;;;8.68;2.63;;;8.40;83.00;;;7.40;66.20;100568.47;4997687;28;20050;-74
2022/12/28 02:03:00;;;;;;;9.25;2.35;;;8.50;83.10;;;7.37;65.91;100566.22;4998194;28;20597;-75
2022/12/28 02:05:33;;;;;;;11.93;2.58;;;8.40;82.90;;;7.41;66.35;100558.69;5002777;28;20042;-74
2022/12/28 02:08:07;;;;;;;9.40;2.30;;;8.40;83.10;;;7.41;66.24;100553.38;4984085;28;20152;-75
2022/12/28 02:10:36;;;;;;;8.45;2.92;;;8.40;83.10;;;7.39;66.48;100535.00;4982763;28;20050;-74
2022/12/28 02:13:05;;;;;;;8.95;2.40;;;8.40;83.30;;;7.45;66.41;100533.41;5005518;28;20046;-74
2022/12/28 02:15:32;;;;;;;7.78;2.60;;;8.40;83.10;;;7.43;66.17;100530.97;4982697;28;20076;-74
2022/12/28 02:18:02;;;;;;;9.23;2.20;;;8.40;83.10;;;7.48;66.44;100530.38;4998693;28;20049;-74
2022/12/28 02:20:43;;;;;;;5.68;2.00;;;8.40;83.30;;;7.47;65.97;100526.09;5004397;28;20112;-76
2022/12/28 02:23:45;;;;;;;11.10;2.27;;;8.40;83.30;;;7.48;66.32;100525.09;4996587;28;20148;-74
2022/12/28 02:26:44;;;;;;;8.13;2.08;;;8.60;83.20;;;7.44;66.18;100514.03;4953320;28;20070;-75
2022/12/28 02:29:50;;;;;;;11.15;2.50;;;8.40;83.10;;;7.42;66.48;100513.41;4985835;28;20056;-74
2022/12/28 02:32:46;;;;;;;9.23;2.47;;;8.40;83.30;;;7.37;66.52;100496.38;5000232;28;20046;-74
2022/12/28 02:39:02;;;;;;;6.00;2.10;;;8.40;83.40;;;7.41;66.53;100484.38;4936460;28;20192;-74
2022/12/28 02:41:33;;;;;;;7.97;2.50;;;8.40;83.50;;;7.46;66.59;100480.16;4982140;28;20050;-75
2022/12/28 02:44:01;;;;;;;7.07;2.50;;;8.50;83.70;;;7.47;66.34;100484.47;4991541;28;20495;-75
2022/12/28 02:52:18;;;;;;;7.07;2.50;;;8.50;83.70;;;7.56;66.69;100477.16;4986287;28;20192;-74
2022/12/28 02:58:23;;;;;;;9.23;2.72;;;8.60;83.80;;;7.55;66.88;100456.94;4982385;28;20123;-74
2022/12/28 03:01:06;;;;;;;4.95;2.30;;;8.60;83.90;;;7.54;66.70;100454.50;4985063;28;20065;-74
2022/12/28 03:03:46;;;;;;;6.65;2.50;;;8.60;83.80;;;7.56;66.87;100458.59;5004306;28;20046;-75
2022/12/28 03:09:23;;;;;;;8.75;2.67;;;8.60;83.90;;;7.60;66.84;100437.81;4989045;28;20042;-75
2022/12/28 03:11:55;;;;;;;8.38;3.00;;;8.80;84.30;;;7.59;67.03;100444.13;5003367;28;20046;-74
2022/12/28 03:14:39;;;;;;;6.55;2.58;;;8.70;84.40;;;7.55;67.56;100430.41;4984504;28;20105;-75
2022/12/28 03:31:21;;;;;;;7.47;2.30;;;8.50;86.00;;;7.55;68.50;100405.72;4987671;28;20082;-74
2022/12/28 03:34:05;;;;;;;7.35;2.50;;;8.50;86.10;;;7.56;68.98;100405.50;4980242;28;20050;-75
2022/12/28 03:36:48;;;;;;;10.50;2.90;;;8.50;86.30;;;7.57;68.88;100391.25;4977594;28;21769;-74
2022/12/28 03:39:32;;;;;;;6.32;2.60;;;8.60;86.30;;;7.60;68.97;100398.81;4985979;28;20050;-74
2022/12/28 03:45:00;;;;;;;8.80;2.33;;;8.60;86.30;;;7.64;69.10;100402.72;4974176;28;20049;-74
2022/12/28 03:47:32;;;;;;;9.30;2.63;;;8.70;86.50;;;7.65;69.00;100393.75;4988463;28;20142;-74
2022/12/28 03:50:00;;;;;;;5.75;2.50;;;8.70;86.70;;;7.64;69.08;100391.28;5000205;28;20042;-75
2022/12/28 03:52:30;;;;;;;8.43;2.58;;;8.60;86.50;;;7.68;68.90;100385.41;4984710;28;20042;-74
2022/12/28 03:54:59;;;;;;;5.75;2.50;;;8.70;86.50;;;7.66;68.87;100382.13;5017839;28;20041;-75
2022/12/28 03:57:26;;;;;;;4.60;2.50;;;8.70;86.50;;;7.64;69.03;100384.16;5014693;28;20099;-74
2022/12/28 03:59:54;;;;;;;7.22;2.78;;;8.70;86.60;;;7.64;69.00;100378.03;4982360;28;20056;-74
2022/12/28 04:02:21;;;;;;;7.45;2.58;;;8.60;86.40;;;7.66;68.82;100373.31;4985760;28;20056;-74
2022/12/28 04:04:48;;;;;;;7.53;2.58;;;8.70;86.50;;;7.66;69.03;100368.88;5005211;28;20058;-74
2022/12/28 04:07:15;;;;;;;5.85;2.58;;;8.70;86.50;;;7.69;68.94;100364.97;4981130;28;20503;-74
2022/12/28 04:09:44;;;;;;;7.85;2.60;;;8.70;86.40;;;7.70;68.79;100354.16;5000837;28;20054;-74
2022/12/28 04:12:13;;;;;;;7.28;2.65;;;8.70;86.50;;;7.70;68.97;100348.03;4987994;28;20087;-74
2022/12/28 04:15:07;;;;;;;8.48;2.38;;;8.70;86.50;;;7.73;68.80;100347.66;5006720;28;20041;-74
2022/12/28 04:17:35;;;;;;;5.55;2.42;;;8.70;86.50;;;7.72;68.65;100349.50;4979856;28;20411;-74
2022/12/28 04:20:02;;;;;;;6.00;2.47;;;8.70;86.30;;;7.77;68.73;100345.44;4975949;28;20081;-75
2022/12/28 04:22:30;;;;;;;4.05;2.17;;;8.80;86.30;;;7.77;68.68;100345.44;4985400;28;20045;-74
2022/12/28 04:25:00;;;;;;;5.93;2.72;;;8.80;86.30;;;7.77;68.71;100348.91;4984391;28;20660;-74
2022/12/28 04:27:27;;;;;;;6.55;2.42;;;9.00;86.50;;;7.74;69.01;100342.16;4989919;28;20395;-74
2022/12/28 04:29:58;;;;;;;7.13;2.42;;;8.70;86.30;;;7.77;68.87;100343.59;4985647;28;20042;-74
2022/12/28 04:32:25;;;;;;;6.97;2.58;;;8.80;86.30;;;7.76;68.84;100336.66;4988249;28;20474;-74
2022/12/28 04:34:52;;;;;;;6.30;2.58;;;8.80;86.50;;;7.75;69.17;100338.47;5009012;28;20514;-74
2022/12/28 04:37:19;;;;;;;7.88;2.35;;;8.80;86.50;;;7.75;69.08;100338.47;4987732;28;20046;-75
2022/12/28 04:39:46;;;;;;;6.07;2.67;;;8.80;86.70;;;7.81;69.42;100330.72;4981618;28;20108;-75
2022/12/28 04:42:15;;;;;;;5.32;2.40;;;8.80;86.80;;;7.79;69.57;100314.19;5004059;28;20434;-74
2022/12/28 04:44:42;;;;;;;7.82;2.92;;;8.80;86.90;;;7.77;69.72;100317.06;4996214;28;20055;-74
2022/12/28 04:47:09;;;;;;;7.97;2.97;;;8.80;87.20;;;7.77;69.88;100313.59;5004691;28;20488;-74
2022/12/28 04:49:36;;;;;;;10.65;3.15;;;8.80;87.50;;;7.73;70.36;100319.28;4996181;28;20041;-74
2022/12/28 04:52:03;;;;;;;8.07;2.75;;;8.80;87.90;;;7.73;70.38;100321.94;4978863;28;20679;-75
2022/12/28 04:54:31;;;;;;;6.28;2.65;;;8.80;88.00;;;7.75;70.29;100319.88;4999694;28;20034;-74
2022/12/28 04:56:58;;;;;;;7.88;2.72;;;8.80;88.00;;;7.78;70.53;100317.88;5005722;28;20052;-75
2022/12/28 04:59:26;;;;;;;5.07;2.45;;;8.80;88.10;;;7.72;70.72;100307.03;4997160;28;20506;-74
2022/12/28 05:01:53;;;;;;;5.85;2.63;;;8.70;88.30;;;7.75;70.69;100301.31;5000620;28;20042;-74
2022/12/28 05:04:20;;;;;;;7.53;2.50;;;8.80;88.20;;;7.78;70.42;100301.94;5004170;28;20118;-74
2022/12/28 05:06:47;;;;;;;6.88;2.88;;;8.80;88.20;;;7.81;70.36;100288.25;5000983;28;20056;-74
2022/12/28 05:09:15;;;;;;;6.68;2.70;;;8.80;88.50;;;7.77;70.58;100298.47;5000405;28;20046;-75
2022/12/28 05:11:42;;;;;;;7.68;2.65;;;8.80;88.50;;;7.82;70.54;100295.22;5000452;28;20045;-75
2022/12/28 05:14:09;;;;;;;7.10;2.67;;;8.80;88.50;;;7.79;70.99;100293.78;5006751;28;20048;-74
2022/12/28 05:16:37;;;;;;;7.30;2.80;;;8.80;88.50;;;7.82;70.87;100289.91;5006989;28;20057;-74
2022/12/28 05:19:04;;;;;;;6.13;2.88;;;8.90;88.50;;;7.87;70.66;100298.09;5008488;28;20052;-75
2022/12/28 05:21:31;;;;;;;5.25;2.58;;;8.80;88.30;;;7.86;70.67;100296.47;4999686;28;20544;-74
2022/12/28 05:23:59;;;;;;;7.85;3.00;;;8.90;88.30;;;7.89;70.49;100299.53;4986959;28;20049;-74
2022/12/28 05:26:28;;;;;;;7.15;2.80;;;8.90;88.30;;;7.86;70.64;100302.59;4999816;28;20384;-75
2022/12/28 05:28:57;;;;;;;6.65;2.25;;;8.90;88.60;;;7.89;70.63;100306.69;5006486;28;20046;-74
2022/12/28 05:31:24;;;;;;;5.85;2.50;;;8.90;88.50;;;7.92;70.63;100301.00;5003233;28;20053;-74
2022/12/28 05:33:53;;;;;;;7.20;2.65;;;8.90;88.50;;;7.91;70.65;100304.66;5006418;28;20054;-75
2022/12/28 05:36:23;;;;;;;5.65;2.22;;;8.90;88.60;;;7.90;70.78;100297.69;5003174;28;20123;-75
2022/12/28 05:38:51;;;;;;;7.47;2.60;;;8.90;88.60;;;7.87;71.03;100293.63;5005304;28;20139;-74
2022/12/28 05:41:22;;;;;;;6.10;2.75;;;8.90;89.00;;;7.84;71.07;100293.19;4999798;28;20379;-74
2022/12/28 05:43:49;;;;;;;6.47;2.60;;;8.90;88.90;;;7.84;71.31;100287.88;5002947;28;20046;-74
2022/12/28 05:46:20;;;;;;;7.97;2.90;;;8.90;89.00;;;7.82;71.46;100293.38;4998714;28;20033;-74
2022/12/28 05:48:48;;;;;;;6.68;2.65;;;8.90;89.20;;;7.85;71.43;100294.81;4993736;28;20041;-74
2022/12/28 05:51:21;;;;;;;5.20;2.60;;;8.90;89.10;;;7.88;71.34;100295.25;5004168;28;20060;-74
2022/12/28 05:53:48;;;;;;;6.10;2.38;;;8.90;88.90;;;7.92;70.98;100293.84;5007620;28;20049;-74
2022/12/28 05:56:19;;;;;;;7.15;3.00;;;8.90;89.00;;;7.89;71.36;100293.41;4999922;28;20049;-74
2022/12/28 05:58:52;;;;;;;8.53;2.90;;;8.90;89.30;;;7.94;71.21;100288.31;5001648;28;20129;-75
2022/12/28 06:01:22;;;;;;;6.85;2.92;;;8.90;89.10;;;7.95;71.11;100289.94;4993209;28;20366;-77
2022/12/28 06:03:55;;;;;;;8.70;3.35;;;9.00;89.20;;;7.95;71.33;100289.94;5005627;28;20044;-77
2022/12/28 06:06:24;;;;;;;7.75;3.17;;;9.00;89.10;;;7.93;71.60;100284.84;4998765;28;20053;-77
2022/12/28 06:08:51;;;;;;;8.73;3.70;;;9.00;89.40;;;7.95;71.65;100285.50;5002023;28;20414;-77
2022/12/28 06:11:21;;;;;;;5.60;2.45;;;9.00;89.60;;;7.97;71.73;100285.28;5001308;28;20046;-76
2022/12/28 06:13:49;;;;;;;8.90;2.65;;;9.00;89.80;;;7.92;72.39;100280.56;4987847;28;20050;-76
2022/12/28 06:16:19;;;;;;;6.55;2.35;;;9.00;90.20;;;7.95;72.46;100274.03;4990998;28;20060;-76
2022/12/28 06:18:47;;;;;;;6.22;2.50;;;9.00;90.50;;;7.96;72.73;100275.69;5003772;28;20073;-76
2022/12/28 06:21:18;;;;;;;6.53;2.72;;;9.00;90.60;;;8.00;72.60;100266.28;5005850;28;20042;-76
2022/12/28 06:23:47;;;;;;;12.05;2.80;;;9.00;91.00;;;7.98;72.97;100268.31;4988767;28;20064;-76
2022/12/28 06:26:17;;;;;;;9.38;2.78;;;9.00;91.10;;;7.96;73.13;100268.53;5003390;28;20026;-77
2022/12/28 06:28:46;;;;;;;7.90;3.03;;;9.00;91.20;;;7.96;73.49;100273.03;4989560;28;20069;-77
2022/12/28 06:31:15;;;;;;;5.93;2.55;;;9.00;91.80;;;7.95;73.76;100268.72;5000432;28;20045;-76
2022/12/28 06:33:43;;;;;;;8.02;2.47;;;9.00;91.80;;;7.94;73.96;100264.41;5002716;28;20046;-76
2022/12/28 06:36:13;;;;;;;10.88;2.78;;;9.00;92.00;;;7.96;73.87;100267.72;4992762;28;20049;-76
2022/12/28 06:38:40;;;;;;;5.60;2.60;;;9.00;92.30;;;7.99;74.03;100265.47;4998181;28;20045;-76
2022/12/28 06:41:12;;;;;;;6.25;2.35;;;9.00;92.20;;;8.02;74.00;100253.63;4996175;28;20050;-77
2022/12/28 06:43:41;;;;;;;12.90;2.95;;;9.00;92.20;;;7.99;74.20;100270.78;4997858;28;20513;-76
2022/12/28 06:46:09;;;;;;;6.97;2.30;;;9.00;92.30;;;8.04;74.23;100264.03;5005224;28;20048;-77
2022/12/28 06:48:37;;;;;;;10.45;2.40;;;9.00;92.20;;;8.05;73.94;100265.69;4996535;28;20052;-76
2022/12/28 06:51:07;;;;;;;7.63;2.50;;;9.00;92.40;;;8.03;74.22;100268.53;4998668;28;20045;-76
2022/12/28 06:53:36;;;;;;;7.28;2.35;;;9.10;92.50;;;8.09;74.12;100273.03;5006450;28;20486;-76
2022/12/28 06:56:06;;;;;;;7.18;2.40;;;9.10;92.60;;;8.13;73.96;100268.16;4994003;28;20072;-79
2022/12/28 06:58:35;;;;;;;6.72;2.47;;;9.10;92.40;;;8.15;73.87;100269.63;4980487;28;20051;-78
2022/12/28 07:01:07;;;;;;;6.32;2.28;;;9.10;92.40;;;8.13;74.18;100258.34;4997306;28;20064;-77
2022/12/28 07:03:34;;;;;;;4.57;2.10;;;9.10;92.40;;;8.14;74.15;100261.81;5006560;28;20394;-77
2022/12/28 07:06:02;;;;;;;10.52;2.53;;;9.10;92.60;;;8.14;74.29;100256.50;5003512;28;20037;-76
2022/12/28 07:08:30;;;;;;;6.93;2.10;;;9.10;92.80;;;8.12;74.62;100248.75;4998117;28;20049;-77
2022/12/28 07:11:03;;;;;;;6.25;2.05;;;9.10;93.00;;;8.11;74.53;100259.59;4990245;28;20064;-77
2022/12/28 07:13:30;;;;;;;7.30;2.33;;;9.10;93.00;;;8.10;74.79;100258.78;4979273;28;20076;-77
2022/12/28 07:16:03;;;;;;;8.57;2.58;;;9.10;93.20;;;8.09;74.95;100259.78;4995247;28;20052;-77
2022/12/28 07:18:30;;;;;;;5.88;2.00;;;9.10;93.40;;;8.12;75.14;100270.00;5006162;28;20045;-77
2022/12/28 07:21:02;;;;;;;7.68;2.72;;;9.10;93.40;;;8.11;74.89;100254.28;4990426;28;20056;-77
2022/12/28 07:23:30;;;;;;;7.28;2.88;;;9.10;93.50;;;8.13;74.97;100254.88;4997228;28;20053;-76
2022/12/28 07:25:58;;;;;;;7.70;2.28;;;9.20;93.20;;;8.16;74.78;100243.88;5001892;28;20045;-77
2022/12/28 07:28:25;;;;;;;5.50;2.20;;;9.20;93.30;;;8.19;74.87;100240.78;4997505;28;20042;-77
2022/12/28 07:30:52;;;;;;;7.78;2.92;;;9.20;93.40;;;8.20;74.88;100245.94;5003191;28;20058;-79
2022/12/28 07:33:21;;;;;;;11.07;2.67;;;9.20;93.30;;;8.18;74.69;100245.28;5006499;28;20049;-78
2022/12/28 07:35:48;;;;;;;7.22;2.75;;;9.20;93.20;;;8.18;74.87;100237.31;5007536;28;20042;-78
2022/12/28 07:38:15;;;;;;;10.45;2.58;;;9.20;93.30;;;8.19;75.10;100248.75;4996081;28;20441;-79
2022/12/28 07:40:42;;;;;;;7.65;2.50;;;9.20;93.30;;;8.19;75.21;100244.25;5000920;28;20042;-78
2022/12/28 07:43:09;;;;;;;6.28;2.53;;;9.20;93.60;;;8.18;75.12;100242.63;5005195;28;20046;-79
2022/12/28 07:45:36;;;;;;;8.02;2.42;;;9.20;93.60;;;8.19;75.11;100244.25;5004888;28;20054;-77
2022/12/28 07:48:04;;;;;;;9.88;2.50;;;9.20;93.60;;;8.22;75.23;100230.59;4996555;28;20502;-76
2022/12/28 07:50:32;;;;;;;7.78;2.42;;;9.20;93.40;;;8.23;75.02;100250.81;5001811;28;20048;-77
2022/12/28 07:53:01;;;;;;;6.03;2.63;;;9.20;93.40;;;8.22;74.90;100235.09;4999242;28;20050;-76
2022/12/28 07:55:30;;;;;;;5.47;2.25;;;9.20;93.60;;;8.24;75.19;100243.66;5001507;28;20044;-77
2022/12/28 07:57:57;;;;;;;8.05;2.95;;;9.20;93.80;;;8.25;75.17;100235.50;4997684;28;20073;-77
2022/12/28 08:00:25;;;;;;;10.02;2.92;;;9.30;93.80;;;8.25;75.39;100235.50;5000712;28;20129;-77
2022/12/28 08:02:56;;;;;;;5.38;2.30;;;9.30;94.00;;;8.23;75.57;100236.72;5005718;28;20409;-76
2022/12/28 08:05:23;;;;;;;4.95;2.20;;;9.30;94.00;;;8.23;75.21;100234.88;5001747;28;20049;-76
2022/12/28 08:07:52;;;;;;;7.03;2.40;;;9.30;94.10;;;8.24;75.39;100241.81;5003299;28;20053;-76
2022/12/28 08:10:19;;;;;;;8.85;2.40;;;9.20;94.00;;;8.29;75.50;100233.25;4998782;28;20060;-77
2022/12/28 08:12:46;;;;;;;4.28;2.00;;;9.30;93.80;;;8.31;75.25;100236.53;5004875;28;20050;-77
2022/12/28 08:15:13;;;;;;;4.65;2.20;;;9.30;94.00;;;8.32;75.33;100222.22;5004608;28;20050;-77
2022/12/28 08:17:40;;;;;;;7.75;2.10;;;9.30;93.90;;;8.34;75.27;100227.34;5002039;28;20125;-77
2022/12/28 08:20:08;;;;;;;7.85;2.00;;;9.40;94.00;;;8.35;75.03;100226.34;5003772;28;20033;-77
2022/12/28 08:22:37;;;;;;;6.20;2.33;;;9.30;93.80;;;8.34;75.18;100227.34;5004730;28;20071;-77
2022/12/28 08:25:10;;;;;;;6.68;2.20;;;9.50;93.80;;;8.35;75.09;100231.66;4981265;28;20054;-77
2022/12/28 08:27:37;;;;;;;7.40;2.15;;;9.40;93.70;;;8.36;75.18;100220.00;5002568;28;20129;-77
2022/12/28 08:30:09;;;;;;;7.57;2.40;;;9.40;93.70;;;8.35;75.24;100221.84;5001446;28;20053;-77
2022/12/28 08:32:36;;;;;;;6.53;2.17;;;9.40;93.60;;;8.39;75.15;100216.94;5003915;28;20923;-78
2022/12/28 08:35:04;;;;;;;6.18;1.90;;;9.40;93.50;;;8.39;75.15;100222.25;5003664;28;20048;-77
2022/12/28 08:37:31;;;;;;;6.35;2.00;;;9.40;93.60;;;8.39;75.10;100224.91;5000816;28;20033;-77
2022/12/28 08:39:58;;;;;;;7.60;1.67;;;9.40;93.50;;;8.37;75.04;100219.81;4984034;28;20137;-75
2022/12/28 08:42:27;;;;;;;19.95;2.05;;;9.40;93.50;;;8.44;75.00;100219.81;4995913;28;20538;-78
2022/12/28 08:44:54;;;;;;;4.15;1.50;;;9.40;93.70;;;8.49;74.90;100226.16;5004179;28;20064;-77
2022/12/28 08:47:21;;;;;;;7.10;2.17;;;9.50;93.50;;;8.50;74.86;100224.34;4995107;28;20038;-77
2022/12/28 08:49:48;;;;;;;3.28;1.13;;;9.40;93.30;;;8.50;74.54;100227.00;4983611;28;20050;-77
2022/12/28 08:52:15;;;;;;;5.53;1.77;;;9.50;93.10;;;8.51;74.37;100225.97;5003930;28;20054;-78
2022/12/28 08:54:42;;;;;;;4.07;1.50;;;9.50;92.80;;;8.52;74.33;100227.59;5005181;28;20064;-77
2022/12/28 08:57:10;;;;;;;5.35;1.58;;;9.50;92.90;;;8.50;74.36;100219.00;5006975;28;20042;-77
2022/12/28 08:59:38;;;;;;;4.20;1.40;;;9.50;93.00;;;8.50;74.35;100227.81;4986479;28;20830;-77
2022/12/28 09:02:05;;;;;;;6.85;1.60;;;9.50;93.10;;;8.51;74.70;100226.78;5001143;28;20042;-77
2022/12/28 09:04:32;;;;;;;5.25;1.20;;;9.50;93.10;;;8.51;74.56;100224.13;4985623;28;20704;-76
2022/12/28 09:06:59;;;;;;;9.52;1.70;;;9.50;93.00;;;8.52;74.62;100225.75;5002214;28;20034;-76
2022/12/28 09:09:26;;;;;;;6.63;1.92;;;9.50;93.20;;;8.52;74.52;100228.41;4998646;28;20054;-76
2022/12/28 09:11:54;;;;;;;3.45;1.33;;;9.50;93.00;;;8.57;74.26;100227.78;5000274;28;20088;-76
2022/12/28 09:14:21;;;;;;;4.78;1.25;;;9.60;92.80;;;8.58;74.36;100226.75;5004684;28;20120;-77
2022/12/28 09:16:49;;;;;;;4.50;1.30;;;9.60;93.00;;;8.61;74.40;100226.38;5003210;28;20034;-77
2022/12/28 09:19:16;;;;;;;6.00;1.50;;;9.60;93.10;;;8.63;74.46;100220.84;5002821;28;20050;-77
2022/12/28 09:21:47;;;;;;;5.00;1.50;;;9.60;93.00;;;8.63;74.35;100213.69;4977941;28;20064;-77
2022/12/28 09:24:15;;;;;;;5.75;1.73;;;9.60;93.00;;;8.62;74.12;100220.03;5005840;28;20046;-76
2022/12/28 09:26:42;;;;;;;5.40;1.50;;;9.60;92.90;;;8.61;74.28;100223.72;5005719;28;20501;-76
2022/12/28 09:29:12;;;;;;;3.40;1.55;;;9.60;92.80;;;8.64;74.22;100222.50;5001514;28;20046;-77
2022/12/28 09:31:40;;;;;;;5.30;1.35;;;9.60;92.80;;;8.63;73.93;100223.50;4998122;28;20624;-77
2022/12/28 09:34:11;;;;;;;3.78;1.23;;;9.60;92.60;;;8.66;74.20;100228.41;5005145;28;20064;-77
2022/12/28 09:36:41;;;;;;;3.30;1.20;;;9.60;92.70;;;8.68;73.90;100221.03;5000629;28;20042;-77
2022/12/28 09:39:12;;;;;;;6.50;1.40;;;9.60;92.80;;;8.70;73.92;100224.34;5001955;28;20450;-84
2022/12/28 09:41:47;;;;;;;3.67;1.20;;;9.70;92.80;;;8.70;74.04;100230.47;4995339;28;20434;-81
2022/12/28 09:44:50;;;;;;;3.85;1.15;;;9.70;92.80;;;8.73;73.88;100214.09;4999217;28;20050;-78
2022/12/28 09:47:30;;;;;;;7.47;1.67;;;9.70;92.60;;;8.74;73.73;100226.38;5001204;28;20509;-79
2022/12/28 09:50:35;;;;;;;4.32;1.38;;;9.70;92.50;;;8.74;73.88;100229.03;4998948;28;20371;-79
2022/12/28 09:53:30;;;;;;;4.82;1.42;;;9.70;92.50;;;8.75;73.95;100227.19;5001889;28;20494;-79
2022/12/28 09:56:04;;;;;;;4.88;1.40;;;9.70;92.50;;;8.73;73.58;100214.09;5000406;28;20042;-79
2022/12/28 09:58:36;;;;;;;3.55;1.20;;;9.70;92.30;;;8.76;73.70;100216.34;4996158;28;20518;-79
2022/12/28 10:01:09;;;;;;;2.85;1.23;;;9.80;92.30;;;8.81;73.46;100217.56;5001453;28;20124;-79
2022/12/28 10:03:39;;;;;;;4.53;1.23;;;9.80;92.20;;;8.80;73.41;100215.94;4995941;28;20061;-79
2022/12/28 10:06:14;;;;;;;6.10;1.45;;;9.90;92.40;;;8.81;73.63;100209.59;4979861;28;20418;-79
2022/12/28 10:08:46;;;;;;;3.97;1.50;;;9.80;92.20;;;8.84;73.65;100209.19;4992977;28;20089;-79
2022/12/28 10:11:18;;;;;;;6.13;1.50;;;9.90;92.30;;;8.87;73.53;100198.94;5000850;28;20054;-79
2022/12/28 10:13:56;;;;;;;3.33;1.10;;;9.90;92.00;;;8.89;73.06;100206.72;5001918;28;20045;-79
2022/12/28 10:16:25;;;;;;;5.35;1.45;;;9.90;91.70;;;8.89;73.16;100198.75;4989019;28;20035;-79
2022/12/28 10:18:53;;;;;;;5.22;1.33;;;9.90;91.70;;;8.90;73.06;100192.41;5005446;28;20116;-79
2022/12/28 10:21:24;;;;;;;4.20;1.40;;;9.90;91.60;;;8.91;72.96;100202.00;5003959;28;20105;-79
2022/12/28 10:23:53;;;;;;;;;;;9.90;91.60;;;8.91;73.01;100204.66;5004294;28;20054;-79
2022/12/28 10:26:21;;;;;;;3.42;1.42;;;9.90;91.40;;;8.92;72.65;100203.63;4998332;28;19929;-79
2022/12/28 10:28:52;;;;;;;4.75;1.40;;;9.90;91.10;;;8.93;72.66;100197.28;5005229;28;20432;-79
2022/12/28 10:31:33;;;;;;;4.05;1.30;;;10.00;91.20;;;8.92;73.08;100191.16;4998743;28;20053;-79
2022/12/28 10:34:01;;;;;;;4.97;1.20;;;9.90;91.40;;;8.94;72.78;100189.13;4997335;28;20039;-79
2022/12/28 10:36:34;;;;;;;5.07;1.20;;;9.90;91.30;;;8.95;72.64;100185.44;4989193;28;20042;-79
2022/12/28 10:39:02;;;;;;;3.17;1.05;;;10.00;91.10;;;8.96;72.72;100183.59;4998459;28;20092;-79
2022/12/28 10:41:39;;;;;;;2.58;1.00;;;10.00;91.20;;;8.97;72.37;100185.22;5007772;28;20041;-79
2022/12/28 10:44:21;;;;;;;3.75;1.25;;;10.00;90.70;;;9.00;72.17;100176.84;4994003;28;20061;-89
2022/12/28 10:46:59;;;;;;;4.30;1.20;;;10.00;90.60;;;9.02;72.17;100182.75;5008479;28;20719;-77
2022/12/28 10:49:31;;;;;;;3.92;1.00;;;10.00;90.60;;;9.03;72.32;100176.44;5004392;28;20398;-79
2022/12/28 10:52:05;;;;;;;3.13;1.20;;;10.00;90.60;;;9.05;72.16;100163.72;5003440;28;20092;-77
2022/12/28 10:54:36;;;;;;;5.57;1.30;;;10.00;90.80;;;9.04;72.01;100151.47;5004543;28;20049;-77
2022/12/28 10:57:03;;;;;;;3.03;1.10;;;10.00;90.40;;;9.05;72.21;100165.56;5004407;28;20121;-79
2022/12/28 10:59:32;;;;;;;3.60;1.27;;;10.10;90.60;;;9.07;72.06;100153.69;5008994;28;20490;-79
2022/12/28 11:02:27;;;;;;;4.75;1.20;;;10.10;90.60;;;9.10;72.16;100158.59;4994362;28;20133;-77
2022/12/28 11:04:58;;;;;;;4.13;1.30;;;10.10;90.70;;;9.11;72.13;100152.25;5000746;28;20073;-77
2022/12/28 11:07:34;;;;;;;6.43;1.42;;;10.10;90.40;;;9.12;71.94;100147.75;4981728;28;20391;-79
2022/12/28 11:10:25;;;;;;;2.42;1.00;;;10.10;90.40;;;9.14;71.68;100140.38;5008207;28;20044;-77
2022/12/28 11:12:54;;;;;;;4.38;0.98;;;10.10;90.00;;;9.16;71.59;100133.81;5005887;28;20046;-77